Search for airport 
image banner adimage banner adimage banner ad
image banner ad

CN44 - Flying Bull

Located in Modesto, United States

ICAO - CN44, IATA -

Data provided by Airmate  

General information

Coordinates: N37°37'14" W121°9'47"
Elevation is 40 feet MSL.
Magnetic variation is 15° East
View others Airports in California

Operational data

Special qualification required
Current time UTC:
Current local time:
METAR: KMOD 221353Z 01008KT 10SM CLR 16/12 A2989 RMK AO2 SLP121 T01560117
TAF: KMOD 221123Z 2212/2312 33009KT P6SM SKC FM222100 33012KT P6SM SKC FM230400 34008KT P6SM SKC
View NOTAMs / SUP AIP / TFR affecting this airport [VIEW]
Communications frequencies: [VIEW]

Runways:

RWY identifierQFULength (ft)Width (ft)SurfaceLDA (ft)
021800100GRASS
201800100GRASS

Airport contact information

Address: Modesto United States

Satellite view of CN44